Airways and Terminal Forecast

Significant Meteorological Information

WSPH31 RPLL 261415 
RPHI SIGMET A04 VALID 261420/261820 RPLL-
RPHI MANILA FIR EMBD TS OBS WI N1201 E12136 - N1020 E12327 - N0800 E12252 - N0736 E12154 - N1124 E12036 - N1201 E12136 TOP FL530 MOV W 10KT NC=

Terminal Aerodrome Forecast

TAF RPLL

261100Z 2612/2718 25007KT 9999 FEW025 SCT100 TX34/2704Z TN27/2621Z TEMPO 2612/2616 -SHRA FEW022CB SCT023 BKN090 BECMG 2616/2618 11004KT BECMG 2704/2706 25008KT TEMPO 2706/2712 SCT023CB BKN100=

TAF RPVM

261100Z 2612/2718 22005KT 9999 FEW020 BKN100 TEMPO 2612/2618 14006KT 9000 TSRA SCT018CB OVC090 TEMPO 2618/2624 10004KT -TSRA FEW018CB BKN100=

TAF RPLC

261100Z 2612/2718 35008KT 9999 SCT020 BKN300 TX35/2706Z TN25/2621Z=

TAF RPLB

261100Z 2612/2712 20007KT 9999 FEW020 SCT300 TX32/2706Z TN25/2621Z TEMPO 2612/2618 VRB03KT FEW018CB FEW020 SCT080=

TAF RPLI

261100Z 2612/2712 17006KT 9999 FEW018 BKN280 TEMPO 2612/2618 -SHRA SCT017CB BKN090 BECMG 2701/2703 22009KT BECMG 2703/2705 25009KT=

TAF RPVP

261100Z 2612/2712 18006KT 9999 FEW019 SCT250 BECMG 2615/2617 27004KT BECMG 2700/2702 18007KT TEMPO 2706/2712 -SHRA SCT017CB BKN080=

TAF RPVD

261100Z 2612/2712 22005KT 9000 SCT015 BKN070 TEMPO 2612/2618 VRB05KT 5000 SHRA SCT014CB SCT015 OVC070=

TAF RPMR

261100Z 2612/2712 32005KT 9999 FEW018 BKN080 TEMPO 2612/2615 -RA FEW017CB SCT018 OVC080 BECMG 2702/2704 16007KT TEMPO 2705/2711 6000 -SHRA FEW017CB SCT018 OVC080=

TAF RPMD

261100Z 2612/2712 33006KT 9999 FEW016 SCT090 BKN260 TEMPO 2612/2618 VRB03KT 6000 -SHRA FEW015CB BKN090 OVC260 BECMG 2704/2706 17008KT SCT016 BKN090 TEMPO 2706/2712 -SHRA SCT015CB OVC090=

TAF RPMZ

261100Z 2612/2712 11004KT 9999 FEW017 SCT090 BKN290 TEMPO 2612/2618 VRB03KT 5000 SHRA SCT017CB OVC090 BECMG 2703/2705 23006KT=

TAF RPVK

261100Z 2612/2712 22005KT 9999 SCT016 BKN240 TEMPO 2612/2618 SCT016 BKN070 TEMPO 2703/2709 15006KT -SHRA FEW015CB SCT016 BKN070=

 

RPLL FORECAST TAKE-OFF CONDITION

TIME

(UTC)

WIND

(dddffKT)

TEMP

(°C)

QNH

(hPa)

TIME

(UTC)

WIND

(dddffKT)

TEMP

(°C)

QNH

(hPa)

1200

25007KT

30.5

1007.5

1600

16004KT

29.0

1009.0

1300

25006KT

30.0

1008.0

1700

13004KT

29.0

1008.0

1400

23006KT

29.5

1009.0

1800

11004KT

28.5

1007.5

1500

23005KT

29.0

1009.5

1900

11003KT

28.5

1007.0

ISSUED AT NAIA AMSS-WD/PAGASA-DOST FOR 1100UTC 26 MAY 2022

PREPARED BY:          MPT

CHECKED BY:            CRSED